Time;durP1;ratioP1;P1;durP2;ratioP2;P2;SDS_P1;SDS_P2;PMS_P1;PMS_P2;Temp;Humidity;BMP_temperature;BMP_pressure;BME280_temperature;BME280_humidity;BME280_pressure;Samples;Min_cycle;Max_cycle;Signal;HPM_P1;HPM_P2
2021/12/15 00:01:49;;;;;;;3.40;2.43;;;19.30;63.20;;;;;;4994851;28;20217;-22
2021/12/15 00:04:15;;;;;;;2.17;1.97;;;19.30;63.50;;;;;;4994993;28;20192;-23
2021/12/15 00:06:42;;;;;;;2.27;2.00;;;19.20;63.60;;;;;;4994178;28;20225;-22
2021/12/15 00:09:12;;;;;;;3.07;2.13;;;19.30;63.90;;;;;;4994380;28;20291;-20
2021/12/15 00:11:38;;;;;;;3.60;2.20;;;19.20;64.10;;;;;;4994772;28;20264;-24
2021/12/15 00:14:12;;;;;;;2.63;2.10;;;19.20;64.90;;;;;;4993744;28;20235;-22
2021/12/15 00:16:38;;;;;;;3.73;2.17;;;19.20;64.40;;;;;;4994505;28;20191;-23
2021/12/15 00:19:06;;;;;;;2.10;1.90;;;19.20;64.70;;;;;;4993918;28;20391;-22
2021/12/15 00:21:32;;;;;;;2.30;2.10;;;19.10;64.90;;;;;;4995020;28;20190;-20
2021/12/15 00:23:58;;;;;;;2.43;1.97;;;19.10;64.90;;;;;;4981034;28;20261;-23
2021/12/15 00:26:24;;;;;;;2.83;2.20;;;19.10;65.10;;;;;;4998177;28;20214;-21
2021/12/15 00:28:50;;;;;;;3.30;1.93;;;19.10;65.50;;;;;;4997748;28;20471;-21
2021/12/15 00:31:17;;;;;;;2.47;2.07;;;19.00;65.50;;;;;;4998095;28;20191;-23
2021/12/15 00:33:44;;;;;;;2.33;1.97;;;19.00;65.70;;;;;;4998194;28;20189;-25
2021/12/15 00:36:12;;;;;;;3.43;2.37;;;19.00;65.70;;;;;;4981559;28;20477;-22
2021/12/15 00:38:39;;;;;;;3.63;2.23;;;19.00;66.00;;;;;;4998635;28;20259;-25
2021/12/15 00:41:05;;;;;;;2.63;2.10;;;19.00;66.20;;;;;;4980104;28;20357;-23
2021/12/15 00:43:31;;;;;;;2.10;1.90;;;19.00;66.30;;;;;;4998783;28;20212;-24
2021/12/15 00:45:57;;;;;;;3.07;2.03;;;19.00;66.40;;;;;;4979614;28;20221;-25
2021/12/15 00:48:23;;;;;;;2.97;2.20;;;18.90;66.60;;;;;;4980953;28;20595;-23
2021/12/15 00:50:49;;;;;;;2.20;2.00;;;18.90;66.70;;;;;;4998121;28;20212;-21
2021/12/15 00:53:15;;;;;;;2.43;2.00;;;18.90;66.90;;;;;;4980313;28;20503;-25
2021/12/15 00:55:43;;;;;;;2.43;2.23;;;18.80;67.00;;;;;;4980735;28;20220;-25
2021/12/15 00:58:10;;;;;;;2.10;1.90;;;18.90;67.20;;;;;;4965254;28;20205;-22
2021/12/15 01:00:41;;;;;;;2.33;2.13;;;18.80;67.20;;;;;;4981058;28;20202;-21
2021/12/15 01:03:08;;;;;;;2.43;2.00;;;18.80;67.40;;;;;;4997147;28;20190;-26
2021/12/15 01:05:38;;;;;;;2.40;2.00;;;18.80;67.40;;;;;;4999352;28;20197;-29
2021/12/15 01:08:10;;;;;;;2.07;1.70;;;18.80;67.50;;;;;;4981188;28;20487;-24
2021/12/15 01:11:00;;;;;;;2.20;1.90;;;18.70;67.70;;;;;;4998527;28;20200;-21
2021/12/15 01:21:42;;;;;;;2.07;1.80;;;18.70;68.00;;;;;;4997533;28;20210;-23
2021/12/15 01:24:08;;;;;;;2.90;2.10;;;18.70;68.20;;;;;;4998483;28;20195;-23
2021/12/15 01:26:34;;;;;;;2.30;2.10;;;18.70;68.30;;;;;;4980073;28;20228;-21
2021/12/15 01:28:59;;;;;;;2.10;1.90;;;18.70;68.50;;;;;;4979799;28;20209;-23
2021/12/15 01:31:25;;;;;;;3.07;1.90;;;18.70;68.50;;;;;;4997726;28;20457;-23
2021/12/15 01:33:51;;;;;;;2.30;1.93;;;18.60;68.50;;;;;;4978955;28;20232;-23
2021/12/15 01:36:17;;;;;;;2.63;2.07;;;18.60;68.60;;;;;;4997944;28;20201;-22
2021/12/15 01:38:45;;;;;;;2.20;2.00;;;18.60;68.60;;;;;;4980338;28;20248;-22
2021/12/15 01:41:19;;;;;;;2.23;1.93;;;18.60;68.90;;;;;;4980130;28;20194;-23
2021/12/15 01:49:19;;;;;;;2.33;2.10;;;18.60;69.10;;;;;;4997599;28;20268;-24
2021/12/15 01:51:45;;;;;;;2.40;2.20;;;18.50;69.20;;;;;;4997447;28;20194;-23
2021/12/15 01:54:11;;;;;;;2.17;1.70;;;18.50;69.20;;;;;;4997251;28;20194;-21
2021/12/15 01:56:38;;;;;;;2.30;2.10;;;18.50;69.20;;;;;;4980294;28;20555;-22
2021/12/15 01:59:05;;;;;;;1.90;1.80;;;18.50;69.30;;;;;;4996393;28;20201;-23
2021/12/15 02:01:31;;;;;;;2.50;2.00;;;18.50;69.50;;;;;;4979200;28;20214;-21
2021/12/15 02:03:57;;;;;;;2.63;1.80;;;18.50;69.40;;;;;;4980549;28;20214;-24
2021/12/15 02:06:24;;;;;;;2.40;1.70;;;18.50;69.50;;;;;;4980237;28;20510;-24
2021/12/15 02:08:49;;;;;;;2.17;1.90;;;18.50;69.60;;;;;;4996582;28;20263;-23
2021/12/15 02:11:16;;;;;;;2.90;2.07;;;18.50;69.60;;;;;;4997857;28;20198;-25
2021/12/15 02:13:42;;;;;;;2.60;2.07;;;18.40;69.60;;;;;;4996152;28;20186;-23
2021/12/15 02:16:08;;;;;;;2.13;1.80;;;18.50;70.00;;;;;;4997146;28;20184;-25
2021/12/15 02:18:42;;;;;;;2.27;2.07;;;18.40;69.90;;;;;;5006941;23;20443;-72
2021/12/15 02:21:11;;;;;;;2.07;1.87;;;18.40;70.70;;;;;;4943489;29;20211;-73
2021/12/15 02:23:42;;;;;;;2.87;1.87;;;18.40;70.50;;;;;;4958295;29;20203;-71
2021/12/15 02:26:16;;;;;;;2.13;1.93;;;18.40;70.10;;;;;;4958624;28;20500;-73
2021/12/15 02:28:47;;;;;;;1.90;1.70;;;18.40;70.30;;;;;;4960338;28;20216;-72
2021/12/15 02:39:09;;;;;;;1.70;1.57;;;18.40;70.30;;;;;;4921449;29;20228;-72
2021/12/15 02:41:36;;;;;;;1.70;1.60;;;18.30;70.40;;;;;;4943138;29;20214;-72
2021/12/15 02:44:18;;;;;;;1.90;1.70;;;18.30;70.70;;;;;;4958417;28;20195;-73
2021/12/15 02:46:46;;;;;;;2.17;1.97;;;18.30;70.50;;;;;;4942207;29;20233;-73
2021/12/15 02:49:15;;;;;;;2.97;1.90;;;18.30;70.60;;;;;;4959612;29;20201;-72
2021/12/15 02:51:44;;;;;;;4.80;1.80;;;18.30;70.90;;;;;;4942525;29;20622;-72
2021/12/15 02:54:14;;;;;;;1.90;1.67;;;18.30;70.90;;;;;;4941875;29;20198;-73
2021/12/15 02:56:43;;;;;;;1.70;1.60;;;18.30;71.00;;;;;;4958652;29;20192;-73
2021/12/15 02:59:11;;;;;;;1.70;1.60;;;18.30;70.90;;;;;;4959663;29;20218;-72
2021/12/15 03:05:00;;;;;;;1.77;1.40;;;18.20;71.00;;;;;;4896910;29;20196;-23
2021/12/15 03:07:34;;;;;;;1.60;1.50;;;18.20;71.10;;;;;;4896804;29;20464;-24
2021/12/15 03:15:35;;;;;;;2.00;1.77;;;18.20;71.30;;;;;;4956544;29;20286;-22
2021/12/15 03:18:14;;;;;;;1.70;1.60;;;18.20;71.20;;;;;;4939499;29;20205;-23
2021/12/15 03:21:06;;;;;;;1.57;1.47;;;18.20;71.50;;;;;;4957153;29;20201;-26
2021/12/15 03:23:45;;;;;;;1.70;1.60;;;18.20;71.50;;;;;;4951001;29;20303;-21
2021/12/15 03:26:12;;;;;;;2.37;1.60;;;18.20;72.00;;;;;;4941650;29;20228;-22
2021/12/15 03:39:23;;;;;;;2.47;1.67;;;18.10;71.70;;;;;;4940659;29;20200;-24
2021/12/15 03:41:58;;;;;;;2.57;1.70;;;18.10;71.70;;;;;;4943404;29;20221;-23
2021/12/15 03:44:24;;;;;;;2.00;1.70;;;18.10;71.70;;;;;;4959238;29;20197;-23
2021/12/15 03:46:50;;;;;;;1.90;1.70;;;18.10;71.90;;;;;;4958596;29;20604;-23
2021/12/15 03:49:16;;;;;;;1.70;1.60;;;18.10;71.90;;;;;;4959183;29;20655;-23
2021/12/15 03:51:42;;;;;;;1.60;1.50;;;18.10;72.10;;;;;;4959232;29;20532;-25
2021/12/15 03:54:08;;;;;;;1.70;1.50;;;18.10;72.10;;;;;;4942563;29;20206;-22
2021/12/15 03:56:36;;;;;;;1.77;1.63;;;18.00;72.10;;;;;;4942393;29;20293;-25
2021/12/15 03:59:03;;;;;;;1.70;1.60;;;18.00;72.40;;;;;;4959231;29;20202;-22
2021/12/15 04:01:29;;;;;;;1.60;1.47;;;18.00;72.40;;;;;;4942232;29;20580;-23
2021/12/15 04:03:58;;;;;;;1.60;1.50;;;18.10;73.00;;;;;;4942395;29;20249;-22
2021/12/15 04:06:30;;;;;;;1.50;1.40;;;20.50;60.40;;;;;;4958665;29;20284;-26
2021/12/15 04:08:56;;;;;;;1.67;1.57;;;21.80;54.10;;;;;;4942381;29;20250;-23
2021/12/15 04:11:27;;;;;;;1.40;1.30;;;22.20;52.60;;;;;;4958973;29;20199;-22
2021/12/15 04:13:58;;;;;;;1.50;1.40;;;22.30;52.10;;;;;;4958919;29;20323;-25
2021/12/15 04:18:59;;;;;;;1.60;1.50;;;22.70;51.10;;;;;;4959255;29;20198;-21
2021/12/15 04:21:25;;;;;;;1.63;1.23;;;23.00;50.60;;;;;;4942477;29;20221;-23
2021/12/15 04:23:53;;;;;;;1.33;1.23;;;23.10;50.20;;;;;;4958536;29;20198;-24
2021/12/15 04:26:19;;;;;;;1.37;1.27;;;23.20;50.00;;;;;;4958885;29;20614;-22
2021/12/15 04:28:47;;;;;;;1.93;1.60;;;23.20;49.80;;;;;;4958647;29;20288;-23
2021/12/15 04:31:16;;;;;;;1.73;1.60;;;23.50;49.50;;;;;;4958545;29;20211;-23
2021/12/15 04:33:45;;;;;;;1.40;1.30;;;23.70;49.10;;;;;;4941833;29;20199;-23
2021/12/15 04:36:13;;;;;;;1.60;1.50;;;24.10;48.70;;;;;;4941982;29;20199;-24
2021/12/15 04:38:41;;;;;;;1.40;1.30;;;24.10;48.50;;;;;;4942322;29;20247;-23
2021/12/15 04:41:10;;;;;;;1.63;1.37;;;24.10;48.80;;;;;;4959029;29;20266;-24
2021/12/15 04:43:40;;;;;;;1.53;1.43;;;24.00;48.50;;;;;;4958414;29;20473;-25
2021/12/15 04:46:08;;;;;;;1.93;1.60;;;24.10;48.40;;;;;;4941938;29;20203;-23
2021/12/15 04:48:35;;;;;;;1.80;1.50;;;24.10;48.30;;;;;;4941879;29;20200;-23
2021/12/15 04:51:02;;;;;;;1.40;1.30;;;24.00;48.30;;;;;;4941653;29;20237;-24
2021/12/15 04:53:29;;;;;;;1.40;1.30;;;23.90;48.50;;;;;;4941454;29;20204;-26
2021/12/15 04:55:55;;;;;;;1.67;1.40;;;23.60;48.90;;;;;;4958814;29;20222;-25
2021/12/15 04:58:21;;;;;;;1.50;1.40;;;23.30;49.20;;;;;;4958205;29;20612;-27
2021/12/15 05:00:59;;;;;;;1.40;1.30;;;23.10;49.70;;;;;;4941493;29;20210;-23
2021/12/15 05:03:25;;;;;;;1.23;1.13;;;22.90;50.00;;;;;;4957645;29;20211;-25
2021/12/15 05:05:52;;;;;;;1.17;1.10;;;22.80;50.40;;;;;;4958217;29;20312;-24
2021/12/15 05:08:18;;;;;;;1.50;1.40;;;22.60;50.80;;;;;;4942044;29;20213;-22
2021/12/15 05:10:43;;;;;;;1.70;1.60;;;22.30;51.20;;;;;;4961161;29;20199;-22
2021/12/15 05:13:10;;;;;;;1.40;1.30;;;22.20;51.60;;;;;;4961033;29;20186;-23
2021/12/15 05:15:37;;;;;;;1.50;1.40;;;22.00;52.20;;;;;;4944107;29;20672;-22
2021/12/15 05:18:05;;;;;;;1.40;1.30;;;21.80;52.60;;;;;;4961026;29;20199;-23
2021/12/15 05:20:34;;;;;;;1.30;1.20;;;21.60;53.30;;;;;;4961300;29;20254;-23
2021/12/15 05:23:04;;;;;;;1.47;1.37;;;21.40;53.90;;;;;;4944660;29;20199;-25
2021/12/15 05:25:31;;;;;;;1.40;1.30;;;21.20;54.70;;;;;;4944747;29;20286;-24
2021/12/15 05:27:57;;;;;;;1.30;1.20;;;21.00;55.30;;;;;;4960959;29;20511;-24
2021/12/15 05:30:23;;;;;;;1.43;1.33;;;20.80;55.90;;;;;;4960923;29;20590;-24
2021/12/15 05:32:49;;;;;;;1.70;1.37;;;20.70;56.60;;;;;;4944043;29;20214;-21
2021/12/15 05:35:21;;;;;;;1.20;1.10;;;20.50;57.10;;;;;;4959893;29;20513;-22
2021/12/15 05:37:48;;;;;;;1.30;1.20;;;20.50;57.60;;;;;;4943679;29;20228;-25
2021/12/15 05:40:14;;;;;;;1.37;1.27;;;20.30;58.10;;;;;;4960975;29;20628;-23
2021/12/15 05:42:40;;;;;;;1.30;1.20;;;20.20;58.50;;;;;;4960183;29;20741;-23
2021/12/15 05:45:10;;;;;;;1.20;1.10;;;20.10;58.90;;;;;;4944129;29;20233;-24
2021/12/15 05:47:36;;;;;;;1.10;1.00;;;20.00;59.20;;;;;;4960419;29;20247;-23
2021/12/15 05:50:07;;;;;;;1.57;1.30;;;19.90;59.60;;;;;;4960238;29;20270;-23
2021/12/15 05:52:33;;;;;;;1.07;1.07;;;19.90;60.00;;;;;;4960101;29;20195;-25
2021/12/15 05:55:00;;;;;;;1.17;1.10;;;19.80;60.50;;;;;;4959719;29;20198;-22
2021/12/15 05:57:26;;;;;;;2.40;1.20;;;19.90;60.00;;;;;;4959611;29;20210;-25
2021/12/15 05:59:52;;;;;;;1.30;1.20;;;20.20;59.20;;;;;;4959552;29;20210;-25
2021/12/15 06:02:18;;;;;;;2.00;1.20;;;20.50;58.20;;;;;;4942468;29;20215;-25
2021/12/15 06:04:44;;;;;;;1.20;1.10;;;21.10;56.50;;;;;;4942463;29;20211;-24
2021/12/15 06:07:10;;;;;;;1.57;1.47;;;21.90;54.30;;;;;;4941974;29;20207;-25
2021/12/15 06:09:36;;;;;;;1.30;1.20;;;22.60;52.30;;;;;;4959751;29;20227;-23
2021/12/15 06:12:03;;;;;;;1.10;1.10;;;23.30;50.80;;;;;;4953996;29;20599;-23
2021/12/15 06:14:30;;;;;;;2.80;1.40;;;24.00;49.30;;;;;;4951172;29;20290;-24
2021/12/15 06:17:04;;;;;;;1.33;1.17;;;24.50;48.40;;;;;;4953262;29;20190;-23
2021/12/15 06:19:30;;;;;;;1.33;1.23;;;24.40;48.00;;;;;;4934019;29;20480;-22
2021/12/15 06:21:58;;;;;;;1.20;1.10;;;24.10;48.10;;;;;;4935508;29;20200;-23
2021/12/15 06:24:24;;;;;;;1.30;1.20;;;23.90;48.40;;;;;;4950292;29;20210;-22
2021/12/15 06:26:50;;;;;;;1.20;1.10;;;23.80;48.60;;;;;;4935998;29;20265;-23
2021/12/15 06:29:16;;;;;;;1.67;1.10;;;23.80;48.70;;;;;;4952441;29;20509;-24
2021/12/15 06:31:42;;;;;;;1.13;1.00;;;23.80;48.70;;;;;;4933955;29;20223;-27
2021/12/15 06:34:08;;;;;;;1.30;1.20;;;23.70;48.70;;;;;;4950317;29;20215;-24
2021/12/15 06:36:34;;;;;;;1.30;1.00;;;23.50;49.00;;;;;;4933371;29;20206;-23
2021/12/15 06:39:02;;;;;;;1.20;1.10;;;23.30;49.40;;;;;;4933830;29;20200;-20
2021/12/15 06:41:29;;;;;;;1.17;1.07;;;23.10;49.70;;;;;;4950957;29;20282;-23
2021/12/15 06:43:58;;;;;;;1.20;1.10;;;22.80;50.20;;;;;;4949959;29;20290;-22
2021/12/15 06:47:11;;;;;;;1.20;1.10;;;22.60;50.90;;;;;;4934205;29;20472;-23
2021/12/15 07:00:31;;;;;;;1.67;1.03;;;21.40;54.50;;;;;;4951710;29;20296;-24
2021/12/15 07:02:58;;;;;;;2.40;1.43;;;21.20;55.60;;;;;;4933839;29;20301;-23
2021/12/15 07:05:24;;;;;;;5.30;1.30;;;21.10;56.10;;;;;;4950970;29;20447;-24
2021/12/15 07:07:52;;;;;;;1.67;1.30;;;20.90;57.00;;;;;;4933465;29;20215;-24
2021/12/15 07:10:24;;;;;;;3.90;1.40;;;20.60;58.00;;;;;;4949005;29;20207;-20
2021/12/15 07:12:51;;;;;;;1.67;1.23;;;20.40;58.90;;;;;;4934088;29;20212;-25
2021/12/15 07:15:17;;;;;;;1.47;1.13;;;20.20;59.70;;;;;;4934417;29;20200;-23
2021/12/15 07:17:46;;;;;;;3.50;1.50;;;20.20;61.00;;;;;;4950099;29;20599;-22
2021/12/15 07:23:01;;;;;;;2.50;1.30;;;19.90;63.00;;;;;;4950553;29;20249;-22
2021/12/15 07:25:28;;;;;;;1.47;1.30;;;19.90;63.80;;;;;;4932635;29;20220;-24
2021/12/15 07:27:54;;;;;;;2.10;1.40;;;19.80;64.30;;;;;;4950009;29;20272;-22
2021/12/15 07:30:21;;;;;;;2.90;1.40;;;19.80;64.70;;;;;;4949821;28;20205;-23
2021/12/15 07:32:47;;;;;;;3.00;1.40;;;20.10;63.40;;;;;;4932641;29;20687;-21
2021/12/15 07:35:13;;;;;;;2.30;1.20;;;20.30;61.70;;;;;;4931995;29;20363;-25
2021/12/15 07:37:40;;;;;;;1.67;1.30;;;20.90;59.10;;;;;;4949598;29;20214;-23
2021/12/15 07:40:18;;;;;;;2.50;1.40;;;21.70;56.40;;;;;;4931548;29;20221;-24
2021/12/15 07:42:56;;;;;;;2.23;1.20;;;22.40;54.20;;;;;;4932470;29;20203;-21
2021/12/15 07:45:27;;;;;;;2.17;1.10;;;23.20;52.30;;;;;;4950206;29;20194;-23
2021/12/15 07:47:56;;;;;;;1.43;1.27;;;23.90;50.60;;;;;;4950306;29;20223;-23
2021/12/15 07:50:23;;;;;;;3.83;1.20;;;24.20;49.90;;;;;;4950487;29;20564;-21
2021/12/15 07:52:50;;;;;;;3.60;1.40;;;24.20;49.60;;;;;;4955121;28;20183;-22
2021/12/15 07:55:17;;;;;;;3.00;1.63;;;24.10;49.40;;;;;;4957881;29;20602;-24
2021/12/15 07:57:44;;;;;;;3.83;1.47;;;23.90;49.60;;;;;;4938285;29;20199;-23
2021/12/15 08:00:12;;;;;;;1.40;1.10;;;23.90;49.80;;;;;;4933827;29;20204;-23
2021/12/15 08:02:38;;;;;;;3.10;1.53;;;23.80;49.80;;;;;;4949798;29;20191;-25
2021/12/15 08:05:05;;;;;;;4.10;1.20;;;23.70;49.90;;;;;;4949915;29;20209;-23
2021/12/15 08:07:31;;;;;;;3.20;1.47;;;23.50;50.10;;;;;;4933631;29;20277;-24
2021/12/15 08:09:57;;;;;;;4.00;1.30;;;23.40;50.50;;;;;;4934104;29;20199;-24
2021/12/15 08:12:22;;;;;;;3.27;1.27;;;23.20;50.80;;;;;;4932873;29;20203;-24
2021/12/15 08:14:48;;;;;;;1.50;1.30;;;23.00;51.20;;;;;;4949526;29;20298;-22
2021/12/15 08:17:15;;;;;;;2.47;1.50;;;22.70;51.60;;;;;;4950493;29;20593;-21
2021/12/15 08:19:41;;;;;;;1.97;1.47;;;22.50;52.10;;;;;;4949782;29;20233;-24
2021/12/15 08:22:06;;;;;;;1.80;1.20;;;22.30;52.70;;;;;;4932993;29;20366;-26
2021/12/15 08:24:32;;;;;;;2.30;1.50;;;22.00;53.30;;;;;;4932966;29;20222;-25
2021/12/15 08:26:59;;;;;;;2.43;1.20;;;21.80;54.10;;;;;;4932147;29;20252;-25
2021/12/15 08:29:24;;;;;;;3.17;1.47;;;21.60;54.80;;;;;;4950276;29;20217;-21
2021/12/15 08:31:50;;;;;;;2.13;1.40;;;21.50;55.20;;;;;;4932859;29;20198;-22
2021/12/15 08:34:16;;;;;;;3.43;1.30;;;21.40;55.70;;;;;;4932494;29;20235;-22
2021/12/15 08:36:43;;;;;;;1.20;1.10;;;21.20;56.30;;;;;;4949915;29;20195;-26
2021/12/15 08:39:10;;;;;;;2.80;1.30;;;21.00;57.10;;;;;;4932398;29;20206;-26
2021/12/15 08:41:37;;;;;;;2.23;1.50;;;20.70;57.80;;;;;;4948215;29;20202;-24
2021/12/15 08:44:06;;;;;;;1.50;1.30;;;20.60;58.70;;;;;;4952557;28;20206;-23
2021/12/15 08:46:38;;;;;;;4.00;1.40;;;20.40;59.30;;;;;;4964036;23;20745;-24
2021/12/15 08:49:05;;;;;;;3.23;1.20;;;20.30;60.00;;;;;;4953944;28;20455;-24
2021/12/15 08:51:31;;;;;;;1.40;1.30;;;20.20;61.00;;;;;;4955209;28;20186;-24
2021/12/15 08:54:01;;;;;;;1.97;1.30;;;20.10;61.70;;;;;;4972523;28;20205;-23
2021/12/15 08:56:27;;;;;;;1.40;1.20;;;20.00;62.30;;;;;;4955357;28;20260;-23
2021/12/15 08:58:54;;;;;;;2.20;1.20;;;20.00;63.00;;;;;;4974492;28;20355;-22
2021/12/15 09:01:20;;;;;;;1.03;0.90;;;20.00;63.10;;;;;;4972001;28;20191;-23
2021/12/15 09:03:46;;;;;;;2.13;1.30;;;20.20;61.80;;;;;;4973668;28;20629;-22
2021/12/15 09:06:13;;;;;;;1.30;1.13;;;20.50;60.30;;;;;;4973275;28;20305;-24
2021/12/15 09:08:40;;;;;;;1.77;1.27;;;20.80;58.90;;;;;;4973299;28;20389;-22
2021/12/15 09:11:11;;;;;;;1.80;1.30;;;21.50;57.00;;;;;;4972553;28;20273;-25
2021/12/15 09:13:38;;;;;;;1.73;1.20;;;22.00;55.00;;;;;;4956132;28;20293;-24
2021/12/15 09:16:08;;;;;;;2.83;1.30;;;22.60;53.40;;;;;;4972292;28;20240;-22
2021/12/15 09:18:37;;;;;;;1.37;1.10;;;23.20;51.90;;;;;;4955839;28;20215;-21
2021/12/15 09:21:03;;;;;;;1.70;1.30;;;23.60;50.80;;;;;;4972309;28;20218;-23
2021/12/15 09:23:30;;;;;;;1.73;1.30;;;23.80;50.30;;;;;;4955392;28;20205;-24
2021/12/15 09:25:56;;;;;;;1.87;1.30;;;23.70;50.00;;;;;;4972998;28;20537;-23
2021/12/15 09:28:21;;;;;;;3.07;1.20;;;23.70;50.00;;;;;;4973574;28;20600;-25
2021/12/15 09:30:49;;;;;;;2.13;1.40;;;23.70;49.90;;;;;;4973776;28;20265;-23
2021/12/15 09:33:19;;;;;;;1.40;1.30;;;23.70;49.90;;;;;;4974114;28;20209;-19
2021/12/15 09:35:44;;;;;;;3.17;1.53;;;23.60;50.00;;;;;;4973481;28;20234;-21
2021/12/15 09:38:11;;;;;;;1.70;1.17;;;23.50;50.10;;;;;;4955645;28;20199;-21
2021/12/15 09:40:37;;;;;;;1.53;1.27;;;23.40;50.30;;;;;;4972652;28;20198;-23
2021/12/15 09:43:04;;;;;;;1.10;1.00;;;23.20;50.50;;;;;;4973905;28;20245;-22
2021/12/15 09:45:42;;;;;;;2.17;1.20;;;23.00;50.90;;;;;;4956221;28;20387;-26
2021/12/15 09:57:20;;;;;;;1.33;1.10;;;22.00;53.30;;;;;;4971712;28;20216;-22
2021/12/15 10:05:08;;;;;;;1.60;1.40;;;21.40;55.10;;;;;;4972058;28;20207;-20
2021/12/15 10:19:27;;;;;;;1.40;1.20;;;20.50;58.80;;;;;;4978720;28;20213;-21
2021/12/15 10:22:30;;;;;;;1.97;1.60;;;20.30;59.60;;;;;;4973431;28;20187;-22
2021/12/15 10:25:07;;;;;;;1.30;1.20;;;20.20;60.40;;;;;;4972897;28;20301;-23
2021/12/15 10:27:41;;;;;;;1.83;1.30;;;20.20;61.00;;;;;;4971378;28;20213;-22
2021/12/15 10:30:32;;;;;;;1.40;1.30;;;20.20;61.10;;;;;;4953841;28;20200;-22
2021/12/15 10:33:08;;;;;;;1.30;1.20;;;20.30;61.00;;;;;;4970831;28;20524;-22
2021/12/15 10:35:40;;;;;;;2.80;1.53;;;20.50;60.20;;;;;;4953476;28;20564;-25
2021/12/15 10:38:07;;;;;;;1.93;1.40;;;20.90;58.90;;;;;;4954181;28;20345;-23
2021/12/15 10:40:38;;;;;;;1.73;1.40;;;21.30;57.40;;;;;;4954007;28;20197;-23
2021/12/15 10:43:04;;;;;;;1.90;1.57;;;21.80;55.70;;;;;;4972107;28;20636;-23
2021/12/15 10:45:40;;;;;;;2.27;1.50;;;22.30;54.30;;;;;;4953951;28;20211;-21
2021/12/15 10:48:10;;;;;;;1.40;1.30;;;22.80;53.00;;;;;;4953828;28;20236;-23
2021/12/15 10:50:38;;;;;;;2.03;1.47;;;23.20;51.90;;;;;;4953113;28;20296;-21
2021/12/15 10:53:04;;;;;;;2.00;1.50;;;23.50;51.20;;;;;;4952886;28;20379;-22
2021/12/15 10:55:37;;;;;;;1.50;1.40;;;23.70;50.60;;;;;;4953722;28;20217;-23
2021/12/15 10:58:37;;;;;;;2.20;1.33;;;23.60;50.50;;;;;;4971779;28;20255;-21
2021/12/15 11:01:24;;;;;;;3.20;1.80;;;23.50;50.50;;;;;;4964803;28;20314;-22
2021/12/15 11:03:50;;;;;;;2.60;1.50;;;23.40;50.70;;;;;;4952968;28;20458;-22
2021/12/15 11:06:32;;;;;;;4.00;1.73;;;23.00;52.10;;;;;;4967872;28;20634;-24
2021/12/15 11:09:21;;;;;;;3.43;1.90;;;23.10;52.00;;;;;;4970497;28;20190;-21
2021/12/15 11:12:08;;;;;;;7.37;1.97;;;22.90;52.30;;;;;;4953257;28;20195;-23
2021/12/15 11:14:38;;;;;;;3.17;1.77;;;22.80;52.60;;;;;;4953266;28;20206;-24
2021/12/15 11:17:15;;;;;;;4.50;2.00;;;22.70;52.90;;;;;;4953914;28;20342;-23
2021/12/15 11:19:44;;;;;;;4.10;2.40;;;22.40;53.50;;;;;;4971647;28;20209;-24
2021/12/15 11:22:44;;;;;;;3.37;1.97;;;22.30;54.00;;;;;;4971198;28;20311;-21
2021/12/15 11:25:19;;;;;;;1.87;1.70;;;22.10;54.60;;;;;;4954360;28;20195;-26
2021/12/15 11:27:48;;;;;;;4.37;2.17;;;21.80;55.40;;;;;;4954220;28;20484;-23
2021/12/15 11:30:22;;;;;;;2.87;2.30;;;21.50;56.50;;;;;;4953025;28;20275;-23
2021/12/15 11:32:50;;;;;;;4.80;2.20;;;21.30;57.50;;;;;;4951860;28;20481;-22
2021/12/15 11:35:26;;;;;;;3.07;2.00;;;21.00;58.50;;;;;;4969806;28;20225;-24
2021/12/15 11:38:10;;;;;;;3.93;2.00;;;20.80;59.60;;;;;;4970792;28;20313;-22
2021/12/15 11:40:41;;;;;;;3.50;2.40;;;20.60;60.60;;;;;;4953364;28;20329;-23
2021/12/15 11:43:08;;;;;;;4.10;2.40;;;20.50;62.40;;;;;;4970163;28;20279;-24
2021/12/15 11:45:40;;;;;;;2.87;2.50;;;20.30;63.50;;;;;;4970080;28;20226;-23
2021/12/15 11:48:12;;;;;;;4.80;2.47;;;20.20;64.60;;;;;;4970778;28;20210;-21
2021/12/15 11:50:40;;;;;;;2.77;2.40;;;20.10;65.40;;;;;;4969662;28;20194;-24
2021/12/15 11:53:41;;;;;;;3.30;2.47;;;20.00;66.20;;;;;;4950914;28;20213;-22
2021/12/15 11:56:30;;;;;;;4.10;2.30;;;20.00;66.90;;;;;;4953740;28;20220;-24
2021/12/15 11:59:14;;;;;;;4.40;2.60;;;19.90;67.60;;;;;;4959518;28;20293;-23
2021/12/15 12:01:59;;;;;;;3.73;2.53;;;20.00;67.10;;;;;;4950995;28;20204;-23
2021/12/15 12:04:26;;;;;;;3.70;2.50;;;20.20;66.40;;;;;;4952313;28;20312;-20
2021/12/15 12:07:15;;;;;;;3.37;2.33;;;20.40;64.70;;;;;;4968729;28;20275;-22
2021/12/15 12:09:44;;;;;;;2.60;2.40;;;20.60;63.30;;;;;;4969065;28;20269;-23
2021/12/15 12:12:10;;;;;;;3.20;2.63;;;21.00;61.00;;;;;;4967791;28;20361;-25
2021/12/15 12:14:42;;;;;;;2.87;2.40;;;21.20;59.50;;;;;;4951161;28;20191;-25
2021/12/15 12:17:13;;;;;;;4.43;2.40;;;21.20;59.60;;;;;;4970286;28;20524;-23
2021/12/15 12:19:46;;;;;;;3.37;2.30;;;21.10;59.50;;;;;;4973425;28;20240;-24
2021/12/15 12:22:14;;;;;;;2.83;2.30;;;21.00;59.80;;;;;;4967583;28;20206;-22
2021/12/15 12:24:42;;;;;;;3.43;2.40;;;20.80;61.20;;;;;;4972591;28;20186;-25
2021/12/15 12:27:08;;;;;;;4.07;2.53;;;20.60;62.30;;;;;;4955256;28;20295;-23
2021/12/15 12:29:35;;;;;;;2.70;2.50;;;20.40;63.80;;;;;;4972985;28;20205;-24
2021/12/15 12:32:01;;;;;;;4.00;2.60;;;20.40;64.60;;;;;;4971939;28;20182;-22
2021/12/15 12:34:28;;;;;;;3.70;2.50;;;20.30;65.10;;;;;;4971523;28;20244;-23
2021/12/15 12:36:54;;;;;;;4.47;3.40;;;20.40;64.80;;;;;;4955157;28;20204;-24
2021/12/15 12:39:22;;;;;;;4.90;2.60;;;20.40;64.40;;;;;;4954601;28;20469;-23
2021/12/15 12:41:50;;;;;;;2.50;2.30;;;20.40;64.60;;;;;;4954861;28;20598;-24
2021/12/15 12:44:22;;;;;;;2.40;2.20;;;20.50;64.20;;;;;;4971042;28;20518;-23
2021/12/15 12:46:58;;;;;;;4.43;2.60;;;20.60;63.20;;;;;;4953486;28;20233;-24
2021/12/15 13:00:54;;;;;;;4.27;2.50;;;21.20;59.50;;;;;;4971374;28;20215;-23
2021/12/15 13:03:35;;;;;;;3.77;2.50;;;21.30;58.80;;;;;;4970822;28;20195;-25
2021/12/15 13:06:07;;;;;;;2.73;2.40;;;21.40;58.30;;;;;;4971646;28;20192;-22
2021/12/15 13:08:46;;;;;;;3.23;2.50;;;21.40;58.10;;;;;;4971920;28;20213;-22
2021/12/15 13:11:17;;;;;;;2.73;2.40;;;21.50;57.80;;;;;;4974531;28;20535;-23
2021/12/15 13:13:54;;;;;;;3.73;2.67;;;21.50;57.60;;;;;;4971294;28;20489;-24
2021/12/15 13:16:26;;;;;;;2.73;2.40;;;21.50;57.60;;;;;;4972743;28;20203;-22
2021/12/15 13:18:56;;;;;;;2.90;2.50;;;21.50;57.70;;;;;;4976358;28;20235;-23
2021/12/15 13:21:40;;;;;;;4.20;2.73;;;21.40;57.90;;;;;;4971267;28;20301;-23
2021/12/15 13:28:42;;;;;;;3.53;2.80;;;21.40;58.10;;;;;;4954879;28;20620;-26
2021/12/15 13:30:22;;;;;;;3.60;2.87;;;21.20;58.80;;;;;;4971976;28;20198;-24
2021/12/15 13:32:48;;;;;;;2.83;2.53;;;21.10;59.20;;;;;;4977939;28;20175;-22
2021/12/15 13:35:27;;;;;;;2.97;2.53;;;20.90;59.70;;;;;;4978485;28;20198;-24
2021/12/15 13:37:59;;;;;;;4.47;2.87;;;20.90;60.30;;;;;;4973910;28;20183;-24
2021/12/15 13:40:50;;;;;;;2.20;2.00;;;20.70;61.20;;;;;;4972410;28;20289;-19
2021/12/15 13:43:40;;;;;;;5.57;2.77;;;20.60;62.10;;;;;;4954533;28;20192;-23
2021/12/15 13:46:23;;;;;;;3.10;2.60;;;20.50;63.20;;;;;;4954448;28;20198;-23
2021/12/15 13:49:08;;;;;;;4.53;2.60;;;20.40;63.90;;;;;;4971051;28;20354;-26
2021/12/15 13:51:57;;;;;;;3.30;2.63;;;20.30;64.80;;;;;;4953536;28;20198;-23
2021/12/15 13:54:43;;;;;;;2.90;2.70;;;20.20;65.50;;;;;;4945682;28;20351;-22
2021/12/15 13:57:15;;;;;;;3.63;2.63;;;20.10;66.20;;;;;;4970402;28;20362;-22
2021/12/15 13:59:43;;;;;;;2.87;2.30;;;20.10;66.70;;;;;;4953651;28;20237;-22
2021/12/15 14:02:22;;;;;;;3.07;2.77;;;20.10;67.00;;;;;;4970218;28;20408;-22
2021/12/15 14:04:52;;;;;;;3.80;2.80;;;20.10;67.40;;;;;;4972312;28;20238;-22
2021/12/15 14:07:30;;;;;;;3.23;2.70;;;20.00;67.50;;;;;;4970546;28;20232;-21
2021/12/15 14:09:57;;;;;;;3.60;2.70;;;20.10;67.20;;;;;;4969672;28;20295;-22
2021/12/15 14:12:44;;;;;;;2.97;2.33;;;20.10;66.80;;;;;;4973336;28;20200;-21
2021/12/15 14:15:25;;;;;;;3.10;2.50;;;20.20;66.30;;;;;;4961049;28;20574;-24
2021/12/15 14:18:16;;;;;;;4.17;2.70;;;20.20;66.00;;;;;;4976067;28;20545;-25
2021/12/15 14:20:48;;;;;;;4.37;2.40;;;20.30;65.80;;;;;;4952386;28;20216;-25
2021/12/15 14:23:17;;;;;;;2.97;2.50;;;20.50;64.80;;;;;;4969801;28;20288;-23
2021/12/15 14:25:44;;;;;;;2.50;2.30;;;20.70;63.00;;;;;;4969749;28;20225;-22
2021/12/15 14:28:15;;;;;;;2.90;2.60;;;20.80;62.10;;;;;;4969001;28;20411;-23
2021/12/15 14:30:44;;;;;;;2.50;2.30;;;20.90;61.00;;;;;;4970928;28;20704;-22
2021/12/15 14:33:24;;;;;;;3.30;2.60;;;21.00;60.00;;;;;;4951515;28;20207;-23
2021/12/15 14:35:52;;;;;;;4.80;2.47;;;21.10;59.70;;;;;;4957422;29;20167;-24
2021/12/15 14:38:41;;;;;;;2.70;2.50;;;21.20;59.10;;;;;;4972857;28;20238;-25
2021/12/15 14:41:20;;;;;;;2.50;2.30;;;21.40;58.50;;;;;;4968352;28;20256;-22
2021/12/15 14:43:52;;;;;;;4.20;2.60;;;21.50;58.20;;;;;;4952987;28;20202;-21